Time;durP1;ratioP1;P1;durP2;ratioP2;P2;SDS_P1;SDS_P2;PMS_P1;PMS_P2;Temp;Humidity;BMP_temperature;BMP_pressure;BME280_temperature;BME280_humidity;BME280_pressure;Samples;Min_cycle;Max_cycle;Signal;HPM_P1;HPM_P2
2024/03/10 00:01:09;;;;;;;21.33;8.83;;;8.00;99.90;;;;;;5066963;28;20028;-56
2024/03/10 00:03:36;;;;;;;18.77;8.80;;;8.00;99.90;;;;;;5072547;28;20074;-57
2024/03/10 00:06:02;;;;;;;21.03;9.30;;;7.90;99.90;;;;;;5066958;28;20028;-56
2024/03/10 00:08:27;;;;;;;18.17;8.73;;;7.90;99.90;;;;;;5072163;28;20031;-55
2024/03/10 00:10:53;;;;;;;23.20;9.80;;;8.00;99.90;;;;;;5072516;28;20036;-57
2024/03/10 00:13:19;;;;;;;20.37;9.00;;;8.00;99.90;;;;;;5066612;28;20060;-56
2024/03/10 00:15:45;;;;;;;17.37;8.00;;;8.00;99.90;;;;;;5052575;28;20052;-54
2024/03/10 00:18:11;;;;;;;21.70;9.30;;;8.00;99.90;;;;;;5061048;28;20029;-55
2024/03/10 00:20:36;;;;;;;19.17;9.10;;;8.00;99.90;;;;;;5052078;28;20025;-56
2024/03/10 00:23:02;;;;;;;20.63;9.03;;;8.00;99.90;;;;;;5056860;28;20024;-56
2024/03/10 00:25:28;;;;;;;19.13;8.87;;;8.00;99.90;;;;;;5061128;28;20125;-54
2024/03/10 00:27:53;;;;;;;17.43;8.73;;;8.00;99.90;;;;;;5060704;28;20055;-56
2024/03/10 00:30:19;;;;;;;18.70;8.33;;;8.00;99.90;;;;;;5063889;28;20029;-56
2024/03/10 00:32:45;;;;;;;18.60;8.43;;;8.10;99.90;;;;;;5052227;28;20029;-53
2024/03/10 00:35:10;;;;;;;16.73;8.30;;;8.10;99.90;;;;;;5062077;28;20033;-57
2024/03/10 00:37:38;;;;;;;18.43;8.70;;;8.10;99.90;;;;;;5069177;28;20059;-56
2024/03/10 00:40:05;;;;;;;20.00;8.10;;;8.10;99.90;;;;;;5072012;28;20105;-56
2024/03/10 00:42:31;;;;;;;20.87;8.30;;;8.10;99.90;;;;;;5060930;28;20052;-53
2024/03/10 00:44:59;;;;;;;17.57;8.60;;;8.00;99.90;;;;;;5060298;28;20020;-55
2024/03/10 00:47:25;;;;;;;21.65;9.18;;;8.00;99.90;;;;;;5065602;28;20037;-54
2024/03/10 00:49:51;;;;;;;17.67;7.77;;;7.90;99.90;;;;;;5064956;28;20025;-55
2024/03/10 00:52:16;;;;;;;17.67;7.77;;;8.00;99.90;;;;;;5057062;28;20045;-54
2024/03/10 00:54:42;;;;;;;17.43;8.20;;;8.00;99.90;;;;;;5064540;28;20029;-56
2024/03/10 00:57:08;;;;;;;17.83;8.47;;;8.00;99.90;;;;;;5059567;28;20052;-56
2024/03/10 00:59:34;;;;;;;18.60;7.87;;;7.90;99.90;;;;;;5061583;28;20048;-52
2024/03/10 01:02:00;;;;;;;19.80;8.83;;;8.00;99.90;;;;;;5066717;28;20085;-56
2024/03/10 01:04:25;;;;;;;19.50;8.40;;;8.00;99.90;;;;;;5069439;28;20033;-56
2024/03/10 01:06:51;;;;;;;15.73;8.03;;;8.00;99.90;;;;;;5058955;28;20032;-56
2024/03/10 01:09:18;;;;;;;22.27;9.23;;;7.90;99.90;;;;;;5059786;28;20025;-57
2024/03/10 01:11:47;;;;;;;18.33;7.90;;;7.90;99.90;;;;;;5060107;28;20071;-56
2024/03/10 01:14:17;;;;;;;18.80;8.93;;;7.80;99.90;;;;;;5067470;28;20021;-55
2024/03/10 01:16:43;;;;;;;17.43;8.20;;;7.80;99.90;;;;;;5069441;28;20459;-57
2024/03/10 01:19:11;;;;;;;18.17;8.27;;;7.80;99.90;;;;;;5075903;28;20039;-57
2024/03/10 01:21:37;;;;;;;20.88;8.93;;;7.90;99.90;;;;;;5068751;28;20024;-57
2024/03/10 01:24:04;;;;;;;18.30;8.27;;;7.80;99.90;;;;;;5075554;28;20031;-56
2024/03/10 01:26:30;;;;;;;19.07;8.67;;;7.80;99.90;;;;;;5075813;28;20401;-56
2024/03/10 01:28:56;;;;;;;19.47;9.27;;;7.70;99.90;;;;;;5075663;28;20036;-56
2024/03/10 01:31:22;;;;;;;19.33;8.43;;;7.70;99.90;;;;;;5075785;28;20029;-55
2024/03/10 01:33:48;;;;;;;16.03;7.40;;;7.70;99.90;;;;;;5070797;28;20029;-53
2024/03/10 01:36:14;;;;;;;17.00;8.10;;;7.70;99.90;;;;;;5066790;28;20036;-56
2024/03/10 01:38:40;;;;;;;21.33;9.17;;;7.70;99.90;;;;;;5064688;28;20028;-54
2024/03/10 01:41:06;;;;;;;15.63;8.10;;;7.70;99.90;;;;;;5064532;28;20033;-57
2024/03/10 01:43:33;;;;;;;17.50;8.20;;;7.70;99.90;;;;;;5066198;28;20397;-58
2024/03/10 01:46:07;;;;;;;17.30;8.10;;;7.70;99.90;;;;;;5064689;28;20086;-56
2024/03/10 01:48:37;;;;;;;18.97;8.33;;;7.70;99.90;;;;;;5065969;28;20036;-55
2024/03/10 01:51:12;;;;;;;18.20;7.80;;;7.70;99.90;;;;;;5065278;28;20029;-56
2024/03/10 01:53:38;;;;;;;18.13;8.60;;;7.70;99.90;;;;;;5064748;28;20055;-55
2024/03/10 01:56:04;;;;;;;19.23;9.10;;;7.70;99.90;;;;;;5065150;28;20136;-56
2024/03/10 01:58:31;;;;;;;17.40;8.60;;;7.70;99.90;;;;;;5065026;28;20362;-57
2024/03/10 02:01:01;;;;;;;15.57;8.07;;;7.80;99.90;;;;;;5066956;28;20393;-54
2024/03/10 02:03:28;;;;;;;17.13;7.83;;;7.70;99.90;;;;;;5062458;28;20425;-56
2024/03/10 02:05:54;;;;;;;17.80;7.93;;;7.70;99.90;;;;;;5067930;28;20044;-57
2024/03/10 02:08:19;;;;;;;17.57;8.33;;;7.70;99.90;;;;;;5059971;28;20099;-55
2024/03/10 02:10:50;;;;;;;19.93;8.87;;;7.70;99.90;;;;;;5062826;28;20025;-57
2024/03/10 02:13:16;;;;;;;17.33;8.07;;;7.60;99.90;;;;;;5062720;28;20520;-57
2024/03/10 02:15:42;;;;;;;17.60;7.70;;;7.70;99.90;;;;;;5070819;28;20016;-58
2024/03/10 02:18:08;;;;;;;15.60;7.30;;;7.60;99.90;;;;;;5059556;28;20028;-58
2024/03/10 02:20:37;;;;;;;18.33;8.13;;;7.60;99.90;;;;;;5065383;28;20064;-57
2024/03/10 02:23:03;;;;;;;17.83;7.75;;;7.70;99.90;;;;;;5063209;28;20025;-58
2024/03/10 02:25:38;;;;;;;19.10;8.13;;;7.70;99.90;;;;;;5064811;28;20063;-56
2024/03/10 02:28:20;;;;;;;18.33;8.20;;;7.70;99.90;;;;;;5059149;28;20040;-59
2024/03/10 02:30:57;;;;;;;19.07;8.33;;;7.70;99.90;;;;;;5067256;28;20530;-57
2024/03/10 02:47:14;;;;;;;16.63;7.70;;;7.80;99.90;;;;;;5070049;28;20033;-57
2024/03/10 02:49:40;;;;;;;17.17;8.13;;;7.90;99.90;;;;;;5061862;28;20028;-57
2024/03/10 02:52:06;;;;;;;19.50;8.43;;;7.90;99.90;;;;;;5055680;28;20043;-57
2024/03/10 02:54:32;;;;;;;16.70;7.90;;;7.90;99.90;;;;;;5066053;28;20024;-56
2024/03/10 02:56:58;;;;;;;15.87;7.57;;;7.90;99.90;;;;;;5062197;28;20085;-57
2024/03/10 02:59:29;;;;;;;17.53;7.80;;;7.90;99.90;;;;;;5066032;28;20062;-59
2024/03/10 03:01:55;;;;;;;17.60;7.50;;;7.90;99.90;;;;;;5059793;28;20090;-57
2024/03/10 03:04:21;;;;;;;18.00;8.00;;;8.00;99.90;;;;;;5066640;28;20396;-58
2024/03/10 03:06:47;;;;;;;19.10;7.50;;;8.00;99.90;;;;;;5063801;28;20029;-58
2024/03/10 03:09:13;;;;;;;17.47;8.23;;;8.00;99.90;;;;;;5059205;28;20075;-58
2024/03/10 03:11:40;;;;;;;16.57;7.90;;;7.90;99.90;;;;;;5064378;28;20025;-55
2024/03/10 03:14:08;;;;;;;18.57;8.03;;;7.90;99.90;;;;;;5064788;28;20025;-58
2024/03/10 03:16:34;;;;;;;15.60;7.80;;;7.90;99.90;;;;;;5065610;28;20062;-54
2024/03/10 03:19:00;;;;;;;19.33;8.00;;;7.90;99.90;;;;;;5064180;28;20024;-57
2024/03/10 03:21:25;;;;;;;19.17;8.37;;;7.90;99.90;;;;;;5065292;28;20072;-55
2024/03/10 03:23:52;;;;;;;18.10;8.20;;;7.80;99.90;;;;;;5060591;28;20072;-57
2024/03/10 03:26:18;;;;;;;15.80;7.93;;;7.80;99.90;;;;;;5061694;28;20435;-58
2024/03/10 03:28:44;;;;;;;19.67;8.13;;;7.80;99.90;;;;;;5065417;28;20386;-56
2024/03/10 03:31:10;;;;;;;17.83;7.80;;;7.70;99.90;;;;;;5062830;28;20024;-57
2024/03/10 03:33:35;;;;;;;15.37;7.43;;;7.60;99.90;;;;;;5057774;28;20024;-57
2024/03/10 03:36:02;;;;;;;19.90;8.97;;;7.60;99.90;;;;;;5066969;28;20037;-58
2024/03/10 03:38:27;;;;;;;19.77;8.70;;;7.60;99.90;;;;;;5059517;28;20032;-57
2024/03/10 03:40:53;;;;;;;19.97;8.03;;;7.50;99.90;;;;;;5065127;28;20109;-57
2024/03/10 03:43:18;;;;;;;21.03;8.10;;;7.50;99.90;;;;;;5060873;28;20103;-58
2024/03/10 03:45:44;;;;;;;19.10;8.93;;;7.40;99.90;;;;;;5065107;28;20031;-57
2024/03/10 03:48:10;;;;;;;17.80;8.40;;;7.40;99.90;;;;;;5057094;28;20021;-54
2024/03/10 03:50:35;;;;;;;18.17;8.60;;;7.40;99.90;;;;;;5063613;28;20366;-54
2024/03/10 03:53:01;;;;;;;20.90;8.83;;;7.50;99.90;;;;;;5059272;28;20108;-56
2024/03/10 03:55:27;;;;;;;17.60;7.37;;;7.40;99.90;;;;;;5057392;28;20111;-57
2024/03/10 03:57:53;;;;;;;16.40;8.13;;;7.40;99.90;;;;;;5069174;28;20078;-56
2024/03/10 04:00:19;;;;;;;18.27;7.77;;;7.40;99.90;;;;;;5060621;28;20429;-58
2024/03/10 04:02:46;;;;;;;20.70;8.60;;;7.30;99.90;;;;;;5058499;28;20024;-58
2024/03/10 04:05:15;;;;;;;19.20;8.20;;;7.30;99.90;;;;;;5060446;28;20035;-58
2024/03/10 04:07:41;;;;;;;19.02;8.25;;;7.30;99.90;;;;;;5064586;28;20024;-58
2024/03/10 04:10:09;;;;;;;18.73;8.47;;;7.20;99.90;;;;;;5064622;28;20024;-58
2024/03/10 04:12:38;;;;;;;19.40;8.47;;;7.20;99.90;;;;;;5063074;28;20028;-54
2024/03/10 04:15:05;;;;;;;17.80;8.45;;;7.20;99.90;;;;;;5062232;28;20561;-56
2024/03/10 04:17:31;;;;;;;17.33;8.33;;;7.20;99.90;;;;;;5066422;28;20049;-57
2024/03/10 04:19:57;;;;;;;20.67;9.13;;;7.20;99.90;;;;;;5062303;28;20078;-56
2024/03/10 04:22:23;;;;;;;19.17;8.30;;;7.20;99.90;;;;;;5062150;28;20050;-57
2024/03/10 04:24:49;;;;;;;21.27;8.40;;;7.10;99.90;;;;;;5046662;28;20421;-58
2024/03/10 04:27:15;;;;;;;17.87;8.20;;;7.10;99.90;;;;;;5062399;28;20081;-56
2024/03/10 04:32:14;;;;;;;19.37;8.83;;;7.00;99.90;;;;;;5047340;28;20049;-53
2024/03/10 04:34:40;;;;;;;22.83;9.13;;;6.90;99.90;;;;;;5048336;28;20032;-53
2024/03/10 04:37:08;;;;;;;19.07;8.57;;;6.90;99.90;;;;;;5050320;28;20114;-53
2024/03/10 04:39:34;;;;;;;20.63;8.97;;;6.90;99.90;;;;;;5052243;28;20029;-55
2024/03/10 04:42:00;;;;;;;20.07;9.03;;;6.90;99.90;;;;;;5070190;28;20062;-52
2024/03/10 04:44:26;;;;;;;18.17;7.87;;;6.90;99.90;;;;;;5070359;28;20072;-56
2024/03/10 04:46:51;;;;;;;16.43;7.90;;;6.90;99.90;;;;;;5070202;28;20029;-56
2024/03/10 04:49:17;;;;;;;20.77;8.20;;;6.90;99.90;;;;;;5068177;28;20523;-51
2024/03/10 04:51:43;;;;;;;18.77;8.20;;;6.90;99.90;;;;;;5068009;28;20389;-53
2024/03/10 04:54:09;;;;;;;18.70;8.50;;;6.90;99.90;;;;;;5068029;28;20031;-52
2024/03/10 04:56:35;;;;;;;17.90;7.93;;;6.90;99.90;;;;;;5070242;28;20032;-51
2024/03/10 04:59:02;;;;;;;16.80;7.93;;;6.90;99.90;;;;;;5067648;28;20033;-52
2024/03/10 05:01:28;;;;;;;17.17;7.90;;;6.90;99.90;;;;;;5068848;28;20055;-52
2024/03/10 05:03:54;;;;;;;20.10;8.63;;;6.90;99.90;;;;;;5068334;28;20095;-51
2024/03/10 05:06:19;;;;;;;18.43;8.30;;;6.90;99.90;;;;;;5065139;28;20432;-51
2024/03/10 05:08:46;;;;;;;18.60;8.13;;;6.90;99.90;;;;;;5066038;28;20052;-54
2024/03/10 05:11:12;;;;;;;18.37;8.27;;;6.90;99.90;;;;;;5067958;28;20316;-51
2024/03/10 05:13:38;;;;;;;18.37;8.03;;;6.90;99.90;;;;;;5069796;28;20024;-52
2024/03/10 05:16:04;;;;;;;21.27;8.27;;;6.90;99.90;;;;;;5070293;28;20028;-51
2024/03/10 05:18:31;;;;;;;19.63;9.33;;;6.90;99.90;;;;;;5071257;28;20211;-55
2024/03/10 05:20:57;;;;;;;16.47;7.80;;;6.80;99.90;;;;;;5071175;28;20032;-53
2024/03/10 05:23:22;;;;;;;19.80;9.10;;;6.80;99.90;;;;;;5063357;28;20484;-56
2024/03/10 05:25:48;;;;;;;20.47;8.63;;;6.80;99.90;;;;;;5045644;28;20032;-56
2024/03/10 05:28:18;;;;;;;17.97;7.80;;;6.80;99.90;;;;;;5031447;28;20100;-52
2024/03/10 05:30:44;;;;;;;15.17;7.30;;;6.80;99.90;;;;;;5049819;28;20029;-54
2024/03/10 05:33:11;;;;;;;17.87;7.57;;;6.80;99.90;;;;;;5049049;28;20462;-56
2024/03/10 05:35:37;;;;;;;17.30;7.73;;;6.80;99.90;;;;;;5049421;28;20381;-51
2024/03/10 05:38:03;;;;;;;15.43;7.20;;;6.80;99.90;;;;;;5049192;28;20454;-51
2024/03/10 05:40:29;;;;;;;17.20;7.90;;;6.80;99.90;;;;;;5048837;28;20082;-55
2024/03/10 05:42:55;;;;;;;16.33;7.83;;;6.90;99.90;;;;;;5049464;28;20534;-55
2024/03/10 05:45:20;;;;;;;18.47;8.10;;;6.80;99.90;;;;;;5048955;28;20051;-55
2024/03/10 05:47:48;;;;;;;18.53;8.00;;;6.80;99.90;;;;;;5049342;28;20044;-51
2024/03/10 05:50:14;;;;;;;16.37;7.50;;;6.90;99.90;;;;;;5048978;28;20090;-54
2024/03/10 05:52:40;;;;;;;16.60;7.30;;;6.90;99.90;;;;;;5048595;28;20112;-54
2024/03/10 05:55:07;;;;;;;15.70;6.97;;;7.00;99.90;;;;;;5049218;28;20475;-55
2024/03/10 05:57:33;;;;;;;15.30;7.37;;;6.90;99.90;;;;;;5050290;28;20029;-52
2024/03/10 05:59:59;;;;;;;15.10;7.33;;;6.90;99.90;;;;;;5053083;28;20036;-52
2024/03/10 06:02:25;;;;;;;15.10;7.30;;;6.80;99.90;;;;;;5052662;28;20080;-51
2024/03/10 06:04:50;;;;;;;16.63;7.87;;;6.80;99.90;;;;;;5053023;28;20048;-51
2024/03/10 06:07:16;;;;;;;17.47;7.73;;;6.80;99.90;;;;;;5053178;28;20029;-52
2024/03/10 06:09:41;;;;;;;17.17;7.67;;;6.80;99.90;;;;;;5034999;28;20029;-51
2024/03/10 06:12:07;;;;;;;21.13;9.03;;;6.80;99.90;;;;;;5053197;28;20033;-51
2024/03/10 06:14:33;;;;;;;17.03;7.43;;;6.70;99.90;;;;;;5052837;28;20029;-53
2024/03/10 06:17:00;;;;;;;20.13;8.23;;;6.70;99.90;;;;;;5053163;28;20110;-51
2024/03/10 06:27:42;;;;;;;18.47;8.27;;;6.70;99.90;;;;;;5052731;28;20357;-53
2024/03/10 06:30:10;;;;;;;16.83;7.80;;;6.80;99.90;;;;;;5052150;28;20517;-52
2024/03/10 06:32:37;;;;;;;17.77;8.00;;;6.70;99.90;;;;;;5052148;28;20029;-51
2024/03/10 06:35:03;;;;;;;18.50;8.13;;;6.80;99.90;;;;;;5052705;28;20048;-51
2024/03/10 06:37:28;;;;;;;18.27;7.80;;;6.80;99.90;;;;;;5052827;28;20037;-51
2024/03/10 06:39:54;;;;;;;19.33;8.37;;;6.80;99.90;;;;;;5052202;28;20089;-51
2024/03/10 06:42:21;;;;;;;19.03;7.70;;;6.80;99.90;;;;;;5052469;28;20131;-53
2024/03/10 06:44:46;;;;;;;18.33;8.13;;;6.90;99.90;;;;;;5052557;28;20027;-54
2024/03/10 06:47:12;;;;;;;20.53;8.73;;;6.90;99.90;;;;;;5052745;28;20024;-54
2024/03/10 06:49:38;;;;;;;17.80;8.20;;;6.90;99.90;;;;;;5052134;28;20025;-51
2024/03/10 06:52:06;;;;;;;16.23;7.60;;;6.90;99.90;;;;;;5052449;28;20537;-51
2024/03/10 06:54:32;;;;;;;15.37;7.00;;;6.90;99.90;;;;;;5052041;28;20052;-55
2024/03/10 06:56:57;;;;;;;17.23;7.83;;;6.90;99.90;;;;;;5052066;28;20056;-53
2024/03/10 06:59:25;;;;;;;16.90;7.00;;;6.90;99.90;;;;;;5051363;28;20033;-55
2024/03/10 07:01:55;;;;;;;17.10;7.83;;;6.80;99.90;;;;;;5043036;28;20029;-54
2024/03/10 07:04:21;;;;;;;19.90;8.80;;;7.00;99.90;;;;;;5051473;28;20036;-53
2024/03/10 07:06:50;;;;;;;16.53;7.67;;;7.00;99.90;;;;;;5052101;28;20029;-56
2024/03/10 07:09:16;;;;;;;18.02;7.78;;;7.00;99.90;;;;;;5050457;28;20021;-55
2024/03/10 07:11:42;;;;;;;17.67;7.43;;;7.00;99.90;;;;;;5048961;28;20515;-52
2024/03/10 07:14:08;;;;;;;16.33;7.33;;;7.10;99.90;;;;;;5051419;28;20037;-55
2024/03/10 07:16:34;;;;;;;16.70;7.73;;;7.30;99.90;;;;;;5051852;28;20104;-52
2024/03/10 07:19:00;;;;;;;18.80;8.47;;;7.30;99.90;;;;;;5033547;28;20119;-55
2024/03/10 07:21:25;;;;;;;17.33;8.40;;;7.30;99.90;;;;;;5051243;28;20044;-55
2024/03/10 07:23:51;;;;;;;20.40;8.63;;;7.30;99.90;;;;;;5051464;28;20028;-54
2024/03/10 07:26:17;;;;;;;18.07;8.03;;;7.40;99.90;;;;;;5051060;28;20557;-55
2024/03/10 07:28:43;;;;;;;16.57;7.70;;;7.30;99.90;;;;;;5050573;28;20351;-55
2024/03/10 07:31:09;;;;;;;18.23;7.97;;;7.40;99.90;;;;;;5045499;28;20125;-54
2024/03/10 07:33:34;;;;;;;15.83;8.13;;;7.60;99.90;;;;;;5050537;28;20048;-55
2024/03/10 07:36:00;;;;;;;15.47;7.93;;;7.60;99.90;;;;;;5050838;28;20025;-56
2024/03/10 07:38:27;;;;;;;17.50;7.70;;;7.70;99.90;;;;;;5051231;28;20033;-56
2024/03/10 07:40:53;;;;;;;16.43;7.80;;;7.90;99.90;;;;;;5051212;28;20033;-55
2024/03/10 07:43:20;;;;;;;17.63;7.40;;;8.10;99.90;;;;;;5033332;28;20577;-56
2024/03/10 07:45:45;;;;;;;18.53;8.77;;;8.10;99.90;;;;;;5051310;28;20020;-55
2024/03/10 07:48:12;;;;;;;17.13;8.37;;;8.00;99.90;;;;;;5051570;28;20512;-56
2024/03/10 07:50:38;;;;;;;16.17;7.43;;;8.00;99.90;;;;;;5051209;28;20037;-55
2024/03/10 07:53:03;;;;;;;18.27;8.47;;;8.00;99.90;;;;;;5051438;28;20027;-57
2024/03/10 07:55:30;;;;;;;20.23;8.60;;;8.10;99.90;;;;;;5051454;28;20086;-56
2024/03/10 07:57:59;;;;;;;16.77;7.63;;;8.20;99.90;;;;;;5051579;28;20044;-57
2024/03/10 08:00:26;;;;;;;17.25;8.25;;;8.20;99.90;;;;;;5050984;28;20032;-56
2024/03/10 08:02:53;;;;;;;17.63;8.30;;;8.30;99.90;;;;;;5051144;28;20014;-56
2024/03/10 08:05:20;;;;;;;15.40;8.10;;;8.30;99.90;;;;;;5050910;28;20025;-56
2024/03/10 08:07:48;;;;;;;21.13;8.43;;;8.40;99.90;;;;;;5050829;28;20123;-55
2024/03/10 08:10:14;;;;;;;16.20;7.90;;;8.40;99.90;;;;;;5050691;28;20079;-56
2024/03/10 08:12:43;;;;;;;18.83;8.40;;;8.40;99.90;;;;;;5050904;28;20025;-55
2024/03/10 08:15:11;;;;;;;13.38;7.18;;;8.50;99.90;;;;;;5050752;28;20344;-56
2024/03/10 08:17:37;;;;;;;18.27;8.40;;;8.40;99.90;;;;;;5050900;28;20033;-56
2024/03/10 08:20:06;;;;;;;17.13;7.80;;;8.40;99.90;;;;;;5050161;28;20017;-55
2024/03/10 08:22:33;;;;;;;17.15;7.70;;;8.40;99.90;;;;;;5051123;28;20389;-53
2024/03/10 08:24:59;;;;;;;17.27;7.83;;;8.40;99.90;;;;;;5050746;28;20170;-55
2024/03/10 08:27:24;;;;;;;17.07;8.30;;;8.50;99.90;;;;;;5050814;28;20132;-54
2024/03/10 08:29:50;;;;;;;15.43;8.03;;;8.50;99.90;;;;;;5046388;28;20021;-53
2024/03/10 08:32:16;;;;;;;16.67;8.33;;;8.50;99.90;;;;;;5047552;28;20036;-51
2024/03/10 08:34:42;;;;;;;18.47;8.57;;;8.70;99.90;;;;;;5048407;28;20531;-56
2024/03/10 08:37:09;;;;;;;17.80;8.87;;;8.80;99.90;;;;;;5050368;28;20028;-52
2024/03/10 08:39:34;;;;;;;16.73;8.03;;;9.10;99.90;;;;;;5049902;28;20465;-51
2024/03/10 08:42:00;;;;;;;25.13;11.50;;;9.30;99.90;;;;;;5050078;28;20033;-50
2024/03/10 08:44:25;;;;;;;16.97;8.57;;;9.70;99.90;;;;;;5025254;28;20029;-56
2024/03/10 08:46:52;;;;;;;15.90;7.67;;;9.90;99.90;;;;;;5041612;28;20108;-56
2024/03/10 08:49:17;;;;;;;15.50;7.37;;;10.10;99.90;;;;;;5044912;28;20016;-53
2024/03/10 08:51:43;;;;;;;17.43;7.87;;;10.30;99.90;;;;;;5049669;28;20086;-56
2024/03/10 08:54:09;;;;;;;31.50;11.57;;;10.60;99.90;;;;;;5026586;28;20063;-53
2024/03/10 08:56:40;;;;;;;19.37;8.30;;;10.70;99.90;;;;;;5049869;28;20037;-55
2024/03/10 08:59:11;;;;;;;15.37;7.60;;;11.00;99.90;;;;;;5043759;28;20037;-56
2024/03/10 09:01:38;;;;;;;18.43;8.10;;;11.40;99.90;;;;;;5047324;28;20044;-55
2024/03/10 09:04:06;;;;;;;17.43;8.63;;;11.40;99.90;;;;;;5049427;28;20028;-55
2024/03/10 09:06:34;;;;;;;16.13;8.30;;;11.60;99.90;;;;;;5046559;28;20377;-55
2024/03/10 09:09:00;;;;;;;18.30;8.70;;;11.50;99.90;;;;;;5046739;28;20025;-54
2024/03/10 09:11:26;;;;;;;19.27;8.90;;;11.60;99.90;;;;;;5049317;28;20029;-55
2024/03/10 09:13:52;;;;;;;16.43;8.33;;;11.70;99.90;;;;;;5049287;28;20032;-55
2024/03/10 09:16:18;;;;;;;15.30;8.30;;;11.90;99.90;;;;;;5047555;28;20032;-54
2024/03/10 09:18:44;;;;;;;18.88;7.78;;;12.20;99.90;;;;;;5047775;28;20482;-55
2024/03/10 09:21:10;;;;;;;14.07;8.35;;;12.50;99.90;;;;;;5047976;28;20439;-56
2024/03/10 09:23:39;;;;;;;15.73;8.02;;;12.60;99.90;;;;;;5049043;28;20454;-55
2024/03/10 09:26:04;;;;;;;15.35;7.30;;;12.90;99.90;;;;;;5049376;28;20036;-55
2024/03/10 09:28:30;;;;;;;15.05;8.30;;;13.40;99.90;;;;;;5049299;28;20312;-55
2024/03/10 09:30:57;;;;;;;15.95;7.95;;;13.70;99.90;;;;;;5048994;28;20504;-55
2024/03/10 09:33:23;;;;;;;14.20;8.27;;;13.80;99.50;;;;;;5043902;28;20370;-55
2024/03/10 09:35:53;;;;;;;15.77;7.93;;;13.90;99.80;;;;;;5043444;28;20033;-55
2024/03/10 09:38:19;;;;;;;15.57;8.32;;;14.00;99.90;;;;;;5042927;28;20386;-55
2024/03/10 09:40:45;;;;;;;18.85;9.50;;;14.30;99.10;;;;;;5051339;28;20120;-56
2024/03/10 09:43:11;;;;;;;16.85;8.82;;;14.40;98.90;;;;;;5052864;28;20039;-51
2024/03/10 09:45:47;;;;;;;15.40;8.90;;;14.40;98.70;;;;;;5046651;28;20033;-56
2024/03/10 09:48:17;;;;;;;16.33;9.15;;;14.50;98.30;;;;;;5044543;28;20037;-56
2024/03/10 09:50:48;;;;;;;17.40;9.07;;;14.90;98.30;;;;;;5045910;28;20204;-54
2024/03/10 09:53:15;;;;;;;19.25;9.73;;;15.40;97.40;;;;;;5048896;28;20099;-55
2024/03/10 09:55:41;;;;;;;21.02;10.27;;;15.70;96.60;;;;;;5048182;28;20125;-56
2024/03/10 09:58:15;;;;;;;17.05;10.00;;;16.00;96.20;;;;;;5052656;28;20060;-57
2024/03/10 10:00:44;;;;;;;18.35;10.63;;;16.30;95.60;;;;;;5049790;28;20028;-55
2024/03/10 10:03:12;;;;;;;17.70;10.30;;;16.50;95.20;;;;;;5052636;28;20029;-55
2024/03/10 10:06:00;;;;;;;18.95;10.75;;;17.00;94.80;;;;;;5052295;28;20048;-55
2024/03/10 10:08:29;;;;;;;14.75;9.80;;;17.40;93.70;;;;;;5034284;28;20083;-56
2024/03/10 10:10:58;;;;;;;15.82;9.70;;;17.90;92.50;;;;;;5052015;28;20468;-55
2024/03/10 10:13:29;;;;;;;14.77;9.05;;;18.30;92.20;;;;;;5050935;28;20037;-55
2024/03/10 10:15:55;;;;;;;16.85;10.05;;;19.20;91.50;;;;;;5052098;28;20037;-56
2024/03/10 10:18:22;;;;;;;19.65;9.60;;;20.10;90.60;;;;;;5033729;28;20263;-55
2024/03/10 10:20:55;;;;;;;13.68;8.75;;;20.60;86.90;;;;;;5049305;28;20052;-54
2024/03/10 10:23:23;;;;;;;14.63;9.38;;;20.40;85.40;;;;;;5034334;28;20096;-56
2024/03/10 10:26:05;;;;;;;15.07;9.10;;;20.10;86.70;;;;;;5051923;28;20451;-55
2024/03/10 10:28:34;;;;;;;15.95;9.57;;;21.10;83.90;;;;;;5052308;28;20104;-55
2024/03/10 10:31:16;;;;;;;13.60;9.07;;;21.50;80.70;;;;;;5050240;28;20393;-56
2024/03/10 10:33:45;;;;;;;13.40;8.50;;;21.40;80.90;;;;;;5045880;28;20029;-55
2024/03/10 10:36:12;;;;;;;14.00;8.35;;;21.60;78.00;;;;;;5051796;28;20382;-54
2024/03/10 10:38:40;;;;;;;12.65;8.35;;;21.70;78.30;;;;;;5046952;28;20036;-56
2024/03/10 10:41:07;;;;;;;13.30;8.13;;;21.90;76.50;;;;;;5045622;28;20044;-55
2024/03/10 10:43:39;;;;;;;14.02;8.95;;;22.10;76.80;;;;;;5051866;28;20033;-53
2024/03/10 10:46:06;;;;;;;13.60;8.60;;;22.30;76.00;;;;;;5040077;28;20461;-55
2024/03/10 10:48:35;;;;;;;13.88;8.25;;;22.60;73.10;;;;;;5048409;28;20032;-55
2024/03/10 10:51:02;;;;;;;13.20;8.73;;;22.20;73.30;;;;;;5051775;28;20028;-55
2024/03/10 10:53:29;;;;;;;13.90;8.85;;;21.80;73.30;;;;;;5046418;28;20044;-56
2024/03/10 10:55:56;;;;;;;14.80;9.15;;;20.90;74.60;;;;;;5050855;28;20033;-56
2024/03/10 10:58:23;;;;;;;14.25;9.10;;;20.20;76.70;;;;;;5049481;28;20064;-55
2024/03/10 11:00:54;;;;;;;13.32;8.68;;;19.80;78.80;;;;;;5049407;28;20116;-54
2024/03/10 11:03:28;;;;;;;14.23;9.02;;;19.90;79.60;;;;;;5050062;28;20043;-52
2024/03/10 11:06:03;;;;;;;15.05;9.40;;;20.10;77.90;;;;;;5050254;28;20048;-53
2024/03/10 11:08:30;;;;;;;14.25;8.93;;;19.40;79.10;;;;;;5050754;28;20029;-51
2024/03/10 11:10:55;;;;;;;15.02;8.70;;;19.20;80.40;;;;;;5050673;28;20047;-52
2024/03/10 11:13:22;;;;;;;14.95;8.65;;;18.90;80.60;;;;;;5051562;28;20048;-50
2024/03/10 11:16:09;;;;;;;15.43;9.32;;;18.50;82.40;;;;;;5041785;28;20429;-54
2024/03/10 11:18:36;;;;;;;16.45;9.57;;;18.40;82.10;;;;;;5040361;28;20110;-55
2024/03/10 11:21:05;;;;;;;16.90;9.18;;;17.90;83.50;;;;;;5047752;28;20135;-49
2024/03/10 11:23:36;;;;;;;12.73;8.30;;;17.40;85.20;;;;;;5038544;28;20029;-52
2024/03/10 11:26:14;;;;;;;15.13;8.48;;;17.10;85.70;;;;;;5050915;28;20385;-55
2024/03/10 11:28:56;;;;;;;18.10;9.25;;;17.00;87.40;;;;;;5048124;28;20144;-55
2024/03/10 11:31:27;;;;;;;18.27;9.93;;;16.90;86.70;;;;;;5051259;28;20481;-58
2024/03/10 11:33:55;;;;;;;16.65;9.45;;;16.70;87.40;;;;;;5048758;28;20490;-56
2024/03/10 11:36:22;;;;;;;16.55;9.85;;;16.40;89.00;;;;;;5049254;28;20485;-55
2024/03/10 11:38:51;;;;;;;17.17;9.18;;;16.20;90.10;;;;;;5030681;28;20106;-56
2024/03/10 11:41:18;;;;;;;17.00;9.73;;;16.10;90.30;;;;;;5026493;28;20024;-54
2024/03/10 11:43:47;;;;;;;16.55;9.30;;;16.00;90.30;;;;;;5033270;28;20040;-55
2024/03/10 11:46:20;;;;;;;18.98;9.35;;;15.90;90.80;;;;;;5050740;28;20036;-52
2024/03/10 11:48:48;;;;;;;17.92;9.05;;;15.90;90.80;;;;;;5050355;28;20450;-51
2024/03/10 11:51:14;;;;;;;18.63;9.77;;;16.10;91.40;;;;;;5039644;28;20026;-49
2024/03/10 11:53:40;;;;;;;18.02;9.35;;;16.20;90.60;;;;;;5040288;28;20133;-54
2024/03/10 11:56:07;;;;;;;17.73;9.80;;;16.20;90.80;;;;;;5042485;28;20033;-56
2024/03/10 11:58:35;;;;;;;18.38;9.48;;;16.30;90.80;;;;;;5051112;28;20052;-52
2024/03/10 12:01:08;;;;;;;18.55;9.98;;;16.40;90.70;;;;;;5050089;28;20090;-50
2024/03/10 12:03:35;;;;;;;18.50;9.55;;;16.40;91.00;;;;;;5046142;28;20170;-55
2024/03/10 12:06:05;;;;;;;18.63;9.95;;;16.40;90.90;;;;;;5044824;28;20045;-54
2024/03/10 12:08:37;;;;;;;19.38;9.93;;;16.20;90.90;;;;;;5050878;28;20466;-54
2024/03/10 12:11:03;;;;;;;18.60;9.35;;;16.10;91.20;;;;;;5050485;28;20141;-55
2024/03/10 12:13:29;;;;;;;18.35;10.27;;;16.00;91.30;;;;;;5047616;28;20052;-56
2024/03/10 12:15:58;;;;;;;17.40;9.77;;;15.90;91.80;;;;;;5049158;28;20493;-57
2024/03/10 12:18:24;;;;;;;18.45;10.35;;;16.00;91.50;;;;;;5050713;28;20430;-57
2024/03/10 12:20:50;;;;;;;17.60;10.07;;;16.40;91.10;;;;;;5049672;28;20053;-54
2024/03/10 12:23:17;;;;;;;17.73;9.73;;;16.60;90.90;;;;;;5050145;28;20098;-53
2024/03/10 12:25:44;;;;;;;18.17;10.23;;;16.90;90.60;;;;;;5050067;28;20033;-56
2024/03/10 12:28:13;;;;;;;18.75;9.93;;;17.00;89.90;;;;;;5042740;28;20029;-54
2024/03/10 12:30:43;;;;;;;;;;;17.00;90.00;;;;;;5050476;28;20037;-53
2024/03/10 12:33:09;;;;;;;18.92;10.32;;;17.00;90.50;;;;;;5050575;28;19978;-53
2024/03/10 12:35:36;;;;;;;19.70;10.20;;;17.10;90.40;;;;;;5050500;28;20413;-56
2024/03/10 12:38:03;;;;;;;19.33;10.18;;;17.00;90.10;;;;;;5050620;28;20075;-55
2024/03/10 12:40:32;;;;;;;19.23;10.00;;;16.90;90.30;;;;;;5049573;28;20036;-54
2024/03/10 12:42:59;;;;;;;16.70;9.80;;;16.90;90.30;;;;;;5050557;28;20052;-56
2024/03/10 12:45:25;;;;;;;19.10;10.27;;;16.90;90.60;;;;;;5050740;28;20090;-56
2024/03/10 12:47:51;;;;;;;20.00;10.65;;;16.90;90.40;;;;;;5050639;28;20029;-56
2024/03/10 12:50:17;;;;;;;20.45;11.02;;;16.90;90.50;;;;;;5049840;28;20032;-56
2024/03/10 12:52:42;;;;;;;18.80;10.38;;;17.30;90.70;;;;;;5050735;28;20394;-55
2024/03/10 12:55:09;;;;;;;21.25;11.02;;;17.80;90.60;;;;;;5050564;28;20493;-56
2024/03/10 12:57:41;;;;;;;18.73;9.68;;;18.30;88.00;;;;;;5050910;28;20083;-56
2024/03/10 13:02:50;;;;;;;18.73;10.88;;;18.40;87.50;;;;;;5050439;28;20060;-56
2024/03/10 13:05:16;;;;;;;19.10;10.48;;;18.50;87.60;;;;;;5042465;28;20413;-56
2024/03/10 13:07:42;;;;;;;20.77;11.48;;;18.20;86.70;;;;;;5050317;28;20029;-55
2024/03/10 13:10:10;;;;;;;19.17;10.48;;;17.70;88.30;;;;;;5049463;28;20075;-56